Bon Ami, Texas
Current Conditions -  °F | °C
As of 7:15 PM on Sunday 21 Dec 2014 (Local Time) from KJAS Reporting Station
Overcast Overcast  
Wind Chill: 50°   Ceiling: 900
Heat Index: 50°   Visibility: 10mi
Dew Point: 47°   Wind: 3mph
Humidity: 92%   Direction: 130°SE
Pressure: 29.98"   Gusts: NA
Location:  30.7133°N, 93.9985°W
Report Text: KJAS 220115Z AUTO 13003KT 10SM OVC009 10/09 A2998 RMK AO2 T00980086
Loading
Personal Weather Stations






























Interactive Weather Map New forecast layout! Learn more

10-Day Weather Forecast

Advertisements
Track Severe Weather on mobile